Aviation Digital Data Service (ADDS)

Output produced by METARs form (1347 UTC 23 June 2018)
found at http://www.aviationweather.gov/adds/metars/
 
METAR text: KILE 231256Z AUTO 12007KT 10SM BKN017 26/23 A2986 RMK AO2 SLP109 T02560233
Conditions at: KILE (KILLEEN MUNI , TX, US) observed 1256 UTC 23 June 2018
Temperature: 25.6°C (78°F)
Dewpoint: 23.3°C (74°F) [RH = 87%]
Pressure (altimeter): 29.86 inches Hg (1011.3 mb)
[Sea-level pressure: 1010.9 mb]
Winds: from the ESE (120 degrees) at 8 MPH (7 knots; 3.6 m/s)
Visibility: 10 or more miles (16+ km)
Ceiling: 1700 feet AGL
Clouds: broken clouds at 1700 feet AGL
Weather: automated observation with no human augmentation;
there may or may not be significant weather present at this time